sensor_id;sensor_type;location;lat;lon;timestamp;pressure;altitude;pressure_sealevel;temperature;humidity
54556;BME280;57291;37.520;15.106;2022-10-15T00:00:42;101184.69;;;17.55;74.08
54556;BME280;57291;37.520;15.106;2022-10-15T00:03:10;101183.84;;;17.64;74.16
54556;BME280;57291;37.520;15.106;2022-10-15T00:05:38;101173.13;;;17.71;73.74
54556;BME280;57291;37.520;15.106;2022-10-15T00:08:07;101171.19;;;17.71;73.51
54556;BME280;57291;37.520;15.106;2022-10-15T00:10:36;101182.03;;;17.68;73.66
54556;BME280;57291;37.520;15.106;2022-10-15T00:13:03;101183.34;;;17.62;74.00
54556;BME280;57291;37.520;15.106;2022-10-15T00:15:31;101187.56;;;17.59;73.78
54556;BME280;57291;37.520;15.106;2022-10-15T00:17:57;101188.38;;;17.59;74.09
54556;BME280;57291;37.520;15.106;2022-10-15T00:20:24;101187.25;;;17.61;74.32
54556;BME280;57291;37.520;15.106;2022-10-15T00:22:51;101187.25;;;17.61;74.83
54556;BME280;57291;37.520;15.106;2022-10-15T00:25:19;101184.00;;;17.58;75.07
54556;BME280;57291;37.520;15.106;2022-10-15T00:27:46;101178.84;;;17.57;75.46
54556;BME280;57291;37.520;15.106;2022-10-15T00:30:13;101176.09;;;17.57;75.45
54556;BME280;57291;37.520;15.106;2022-10-15T00:32:40;101169.34;;;17.54;75.62
54556;BME280;57291;37.520;15.106;2022-10-15T00:35:07;101164.81;;;17.50;76.16
54556;BME280;57291;37.520;15.106;2022-10-15T00:37:34;101167.75;;;17.45;76.21
54556;BME280;57291;37.520;15.106;2022-10-15T00:40:02;101168.22;;;17.47;76.36
54556;BME280;57291;37.520;15.106;2022-10-15T00:42:34;101172.91;;;17.46;76.50
54556;BME280;57291;37.520;15.106;2022-10-15T00:45:01;101180.19;;;17.51;76.23
54556;BME280;57291;37.520;15.106;2022-10-15T00:47:36;101183.25;;;17.49;76.32
54556;BME280;57291;37.520;15.106;2022-10-15T00:50:12;101182.44;;;17.49;75.33
54556;BME280;57291;37.520;15.106;2022-10-15T00:53:00;101173.72;;;17.47;75.07
54556;BME280;57291;37.520;15.106;2022-10-15T00:55:31;101166.13;;;17.44;74.95
54556;BME280;57291;37.520;15.106;2022-10-15T00:58:04;101158.59;;;17.41;75.05
54556;BME280;57291;37.520;15.106;2022-10-15T01:00:33;101157.75;;;17.40;75.16
54556;BME280;57291;37.520;15.106;2022-10-15T01:03:01;101152.59;;;17.39;75.27
54556;BME280;57291;37.520;15.106;2022-10-15T01:05:28;101152.59;;;17.39;74.98
54556;BME280;57291;37.520;15.106;2022-10-15T01:07:56;101158.09;;;17.39;74.68
54556;BME280;57291;37.520;15.106;2022-10-15T01:10:26;101160.69;;;17.35;74.86
54556;BME280;57291;37.520;15.106;2022-10-15T01:13:41;101151.16;;;17.32;74.63
54556;BME280;57291;37.520;15.106;2022-10-15T01:15:59;101149.09;;;17.29;75.06
54556;BME280;57291;37.520;15.106;2022-10-15T01:18:32;101147.78;;;17.27;74.94
54556;BME280;57291;37.520;15.106;2022-10-15T01:21:21;101142.28;;;17.27;75.21
54556;BME280;57291;37.520;15.106;2022-10-15T01:32:25;101134.06;;;17.27;73.61
54556;BME280;57291;37.520;15.106;2022-10-15T01:35:05;101125.81;;;17.27;73.31
54556;BME280;57291;37.520;15.106;2022-10-15T01:40:18;101117.13;;;17.25;72.85
54556;BME280;57291;37.520;15.106;2022-10-15T01:42:53;101122.63;;;17.25;72.54
54556;BME280;57291;37.520;15.106;2022-10-15T01:45:48;101124.22;;;17.26;72.12
54556;BME280;57291;37.520;15.106;2022-10-15T01:48:36;101117.94;;;17.25;72.15
54556;BME280;57291;37.520;15.106;2022-10-15T01:51:05;101125.38;;;17.25;72.12
54556;BME280;57291;37.520;15.106;2022-10-15T01:53:33;101131.50;;;17.22;72.10
54556;BME280;57291;37.520;15.106;2022-10-15T01:56:05;101131.03;;;17.20;72.27
54556;BME280;57291;37.520;15.106;2022-10-15T01:58:37;101136.53;;;17.20;72.24
54556;BME280;57291;37.520;15.106;2022-10-15T02:01:06;101125.53;;;17.20;71.96
54556;BME280;57291;37.520;15.106;2022-10-15T02:03:48;101124.72;;;17.19;71.69
54556;BME280;57291;37.520;15.106;2022-10-15T02:06:32;101112.81;;;17.15;71.64
54556;BME280;57291;37.520;15.106;2022-10-15T02:11:59;101105.16;;;17.21;70.94
54556;BME280;57291;37.520;15.106;2022-10-15T02:14:41;101114.38;;;17.25;70.68
54556;BME280;57291;37.520;15.106;2022-10-15T02:17:11;101116.78;;;17.26;71.01
54556;BME280;57291;37.520;15.106;2022-10-15T02:19:55;101118.72;;;17.26;71.23
54556;BME280;57291;37.520;15.106;2022-10-15T02:22:57;101115.50;;;17.24;71.09
54556;BME280;57291;37.520;15.106;2022-10-15T02:25:23;101134.25;;;17.22;71.85
54556;BME280;57291;37.520;15.106;2022-10-15T02:27:53;101131.97;;;17.24;72.99
54556;BME280;57291;37.520;15.106;2022-10-15T02:30:22;101131.44;;;17.30;75.86
54556;BME280;57291;37.520;15.106;2022-10-15T02:32:52;101135.69;;;17.28;76.16
54556;BME280;57291;37.520;15.106;2022-10-15T02:35:21;101140.03;;;17.29;77.25
54556;BME280;57291;37.520;15.106;2022-10-15T02:37:52;101141.50;;;17.26;77.65
54556;BME280;57291;37.520;15.106;2022-10-15T02:40:21;101138.59;;;17.23;77.91
54556;BME280;57291;37.520;15.106;2022-10-15T02:42:50;101145.56;;;17.20;78.12
54556;BME280;57291;37.520;15.106;2022-10-15T02:45:19;101145.09;;;17.18;78.02
54556;BME280;57291;37.520;15.106;2022-10-15T02:47:46;101156.91;;;17.19;77.94
54556;BME280;57291;37.520;15.106;2022-10-15T02:50:13;101152.19;;;17.19;77.50
54556;BME280;57291;37.520;15.106;2022-10-15T02:52:40;101154.47;;;17.17;77.41
54556;BME280;57291;37.520;15.106;2022-10-15T02:55:07;101144.13;;;17.14;77.57
54556;BME280;57291;37.520;15.106;2022-10-15T02:57:35;101148.81;;;17.14;77.27
54556;BME280;57291;37.520;15.106;2022-10-15T03:00:03;101154.97;;;17.10;77.12
54556;BME280;57291;37.520;15.106;2022-10-15T03:02:31;101162.41;;;17.10;76.66
54556;BME280;57291;37.520;15.106;2022-10-15T03:04:58;101160.47;;;17.10;76.16
54556;BME280;57291;37.520;15.106;2022-10-15T03:07:25;101162.41;;;17.10;75.74
54556;BME280;57291;37.520;15.106;2022-10-15T03:09:52;101157.25;;;17.08;75.71
54556;BME280;57291;37.520;15.106;2022-10-15T03:12:20;101152.41;;;17.05;75.98
54556;BME280;57291;37.520;15.106;2022-10-15T03:14:51;101159.03;;;17.04;75.93
54556;BME280;57291;37.520;15.106;2022-10-15T03:17:18;101162.47;;;17.01;76.36
54556;BME280;57291;37.520;15.106;2022-10-15T03:19:45;101169.41;;;16.99;75.89
54556;BME280;57291;37.520;15.106;2022-10-15T03:22:12;101167.78;;;16.98;76.02
54556;BME280;57291;37.520;15.106;2022-10-15T03:24:46;101153.56;;;16.96;76.33
54556;BME280;57291;37.520;15.106;2022-10-15T03:27:17;101155.84;;;16.94;76.37
54556;BME280;57291;37.520;15.106;2022-10-15T03:29:45;101157.47;;;16.95;76.19
54556;BME280;57291;37.520;15.106;2022-10-15T03:32:12;101156.19;;;16.92;76.52
54556;BME280;57291;37.520;15.106;2022-10-15T03:34:40;101156.19;;;16.92;76.08
54556;BME280;57291;37.520;15.106;2022-10-15T03:37:10;101146.31;;;16.91;76.21
54556;BME280;57291;37.520;15.106;2022-10-15T03:39:38;101146.66;;;16.90;76.16
54556;BME280;57291;37.520;15.106;2022-10-15T03:42:06;101149.75;;;16.88;76.07
54556;BME280;57291;37.520;15.106;2022-10-15T03:44:39;101149.25;;;16.86;75.72
54556;BME280;57291;37.520;15.106;2022-10-15T03:47:09;101145.69;;;16.85;76.04
54556;BME280;57291;37.520;15.106;2022-10-15T03:49:44;101150.84;;;16.87;75.50
54556;BME280;57291;37.520;15.106;2022-10-15T03:52:11;101146.50;;;16.86;75.06
54556;BME280;57291;37.520;15.106;2022-10-15T03:54:39;101142.16;;;16.85;75.27
54556;BME280;57291;37.520;15.106;2022-10-15T03:57:07;101139.25;;;16.81;75.23
54556;BME280;57291;37.520;15.106;2022-10-15T03:59:40;101146.66;;;16.81;74.76
54556;BME280;57291;37.520;15.106;2022-10-15T04:02:09;101144.75;;;16.81;74.73
54556;BME280;57291;37.520;15.106;2022-10-15T04:04:36;101149.41;;;16.81;74.79
54556;BME280;57291;37.520;15.106;2022-10-15T04:07:04;101148.28;;;16.82;74.27
54556;BME280;57291;37.520;15.106;2022-10-15T04:09:32;101147.66;;;16.85;73.84
54556;BME280;57291;37.520;15.106;2022-10-15T04:12:18;101145.69;;;16.85;73.57
54556;BME280;57291;37.520;15.106;2022-10-15T04:14:45;101150.69;;;16.83;73.50
54556;BME280;57291;37.520;15.106;2022-10-15T04:17:12;101161.22;;;16.81;73.93
54556;BME280;57291;37.520;15.106;2022-10-15T04:19:43;101162.47;;;16.84;74.01
54556;BME280;57291;37.520;15.106;2022-10-15T04:22:12;101157.00;;;16.84;74.17
54556;BME280;57291;37.520;15.106;2022-10-15T04:24:49;101163.13;;;16.81;74.19
54556;BME280;57291;37.520;15.106;2022-10-15T04:27:25;101161.53;;;16.80;74.65
54556;BME280;57291;37.520;15.106;2022-10-15T04:29:58;101158.28;;;16.78;74.42
54556;BME280;57291;37.520;15.106;2022-10-15T04:32:26;101164.63;;;16.78;74.35
54556;BME280;57291;37.520;15.106;2022-10-15T04:34:54;101167.66;;;16.77;74.50
54556;BME280;57291;37.520;15.106;2022-10-15T04:37:33;101166.34;;;16.74;74.14
54556;BME280;57291;37.520;15.106;2022-10-15T04:40:00;101170.56;;;16.72;73.95
54556;BME280;57291;37.520;15.106;2022-10-15T04:42:28;101164.59;;;16.70;74.02
54556;BME280;57291;37.520;15.106;2022-10-15T04:44:55;101163.78;;;16.69;74.31
54556;BME280;57291;37.520;15.106;2022-10-15T04:47:23;101164.09;;;16.68;74.37
54556;BME280;57291;37.520;15.106;2022-10-15T04:50:00;101164.09;;;16.68;74.06
54556;BME280;57291;37.520;15.106;2022-10-15T04:52:53;101168.47;;;16.69;74.55
54556;BME280;57291;37.520;15.106;2022-10-15T04:55:22;101167.34;;;16.70;73.82
54556;BME280;57291;37.520;15.106;2022-10-15T04:57:54;101167.34;;;16.70;73.86
54556;BME280;57291;37.520;15.106;2022-10-15T05:00:27;101170.56;;;16.72;73.24
54556;BME280;57291;37.520;15.106;2022-10-15T05:03:21;101174.44;;;16.71;72.75
54556;BME280;57291;37.520;15.106;2022-10-15T05:06:18;101172.97;;;16.73;72.50
54556;BME280;57291;37.520;15.106;2022-10-15T05:08:47;101183.66;;;16.75;72.44
54556;BME280;57291;37.520;15.106;2022-10-15T05:11:25;101177.84;;;16.76;72.21
54556;BME280;57291;37.520;15.106;2022-10-15T05:13:57;101183.00;;;16.86;72.31
54556;BME280;57291;37.520;15.106;2022-10-15T05:16:27;101182.13;;;17.03;72.10
54556;BME280;57291;37.520;15.106;2022-10-15T05:18:57;101191.88;;;17.30;71.27
54556;BME280;57291;37.520;15.106;2022-10-15T05:21:25;101183.16;;;17.67;70.45
54556;BME280;57291;37.520;15.106;2022-10-15T05:23:56;101192.09;;;18.14;69.35
54556;BME280;57291;37.520;15.106;2022-10-15T05:26:48;101188.69;;;18.71;67.87
54556;BME280;57291;37.520;15.106;2022-10-15T05:29:16;101194.00;;;19.34;66.98
54556;BME280;57291;37.520;15.106;2022-10-15T05:31:43;101190.31;;;20.04;65.35
54556;BME280;57291;37.520;15.106;2022-10-15T05:34:17;101195.34;;;20.82;63.16
54556;BME280;57291;37.520;15.106;2022-10-15T05:36:50;101190.25;;;21.60;59.57
54556;BME280;57291;37.520;15.106;2022-10-15T05:39:18;101196.19;;;22.13;58.16
54556;BME280;57291;37.520;15.106;2022-10-15T05:41:45;101188.06;;;22.59;53.30
54556;BME280;57291;37.520;15.106;2022-10-15T05:44:12;101196.72;;;23.20;51.61
54556;BME280;57291;37.520;15.106;2022-10-15T05:46:39;101199.28;;;23.78;50.52
54556;BME280;57291;37.520;15.106;2022-10-15T05:49:08;101198.66;;;24.48;49.24
54556;BME280;57291;37.520;15.106;2022-10-15T05:51:48;101211.22;;;25.10;47.46
54556;BME280;57291;37.520;15.106;2022-10-15T05:54:28;101211.25;;;25.54;46.28
54556;BME280;57291;37.520;15.106;2022-10-15T05:56:55;101214.97;;;25.80;44.82
54556;BME280;57291;37.520;15.106;2022-10-15T05:59:22;101222.31;;;26.06;41.84
54556;BME280;57291;37.520;15.106;2022-10-15T06:01:49;101228.13;;;26.49;42.85
54556;BME280;57291;37.520;15.106;2022-10-15T06:04:16;101231.81;;;26.71;42.40
54556;BME280;57291;37.520;15.106;2022-10-15T06:06:43;101235.38;;;26.71;41.11
54556;BME280;57291;37.520;15.106;2022-10-15T06:09:10;101248.00;;;26.43;40.64
54556;BME280;57291;37.520;15.106;2022-10-15T06:11:37;101248.06;;;26.51;41.80
54556;BME280;57291;37.520;15.106;2022-10-15T06:14:04;101252.78;;;26.47;41.44
54556;BME280;57291;37.520;15.106;2022-10-15T06:16:31;101254.19;;;26.12;43.25
54556;BME280;57291;37.520;15.106;2022-10-15T06:18:59;101248.78;;;24.93;46.27
54556;BME280;57291;37.520;15.106;2022-10-15T06:21:26;101254.59;;;24.80;47.00
54556;BME280;57291;37.520;15.106;2022-10-15T06:23:54;101260.69;;;24.93;48.93
54556;BME280;57291;37.520;15.106;2022-10-15T06:26:21;101261.63;;;25.45;48.29
54556;BME280;57291;37.520;15.106;2022-10-15T06:28:47;101266.63;;;25.70;46.96
54556;BME280;57291;37.520;15.106;2022-10-15T06:31:15;101261.75;;;26.08;46.69
54556;BME280;57291;37.520;15.106;2022-10-15T06:33:42;101268.44;;;26.65;45.08
54556;BME280;57291;37.520;15.106;2022-10-15T06:36:10;101259.03;;;27.27;45.39
54556;BME280;57291;37.520;15.106;2022-10-15T06:38:39;101256.66;;;27.76;44.17
54556;BME280;57291;37.520;15.106;2022-10-15T06:41:10;101264.22;;;27.97;42.83
54556;BME280;57291;37.520;15.106;2022-10-15T06:43:37;101268.16;;;27.06;45.27
54556;BME280;57291;37.520;15.106;2022-10-15T06:46:04;101272.59;;;27.22;44.01
54556;BME280;57291;37.520;15.106;2022-10-15T06:48:32;101269.41;;;27.34;45.22
54556;BME280;57291;37.520;15.106;2022-10-15T06:51:01;101272.22;;;27.48;44.71
54556;BME280;57291;37.520;15.106;2022-10-15T06:53:30;101271.03;;;27.39;45.32
54556;BME280;57291;37.520;15.106;2022-10-15T06:56:02;101275.66;;;26.88;45.29
54556;BME280;57291;37.520;15.106;2022-10-15T06:58:35;101277.94;;;26.54;45.98
54556;BME280;57291;37.520;15.106;2022-10-15T07:01:04;101278.72;;;26.54;45.58
54556;BME280;57291;37.520;15.106;2022-10-15T07:03:32;101278.19;;;26.31;46.35
54556;BME280;57291;37.520;15.106;2022-10-15T07:06:02;101291.66;;;26.22;46.62
54556;BME280;57291;37.520;15.106;2022-10-15T07:08:30;101293.28;;;25.71;48.47
54556;BME280;57291;37.520;15.106;2022-10-15T07:11:00;101301.81;;;24.77;49.93
54556;BME280;57291;37.520;15.106;2022-10-15T07:13:30;101301.16;;;24.30;51.58
54556;BME280;57291;37.520;15.106;2022-10-15T07:16:17;101302.00;;;24.61;51.52
54556;BME280;57291;37.520;15.106;2022-10-15T07:18:46;101307.63;;;24.65;50.80
54556;BME280;57291;37.520;15.106;2022-10-15T07:21:14;101307.28;;;24.13;52.80
54556;BME280;57291;37.520;15.106;2022-10-15T07:23:41;101305.19;;;24.06;52.72
54556;BME280;57291;37.520;15.106;2022-10-15T07:26:08;101302.63;;;23.94;53.13
54556;BME280;57291;37.520;15.106;2022-10-15T07:28:35;101303.88;;;23.74;54.78
54556;BME280;57291;37.520;15.106;2022-10-15T07:31:05;101312.25;;;23.77;54.21
54556;BME280;57291;37.520;15.106;2022-10-15T07:33:33;101310.22;;;23.74;53.48
54556;BME280;57291;37.520;15.106;2022-10-15T07:36:05;101310.69;;;23.57;54.39
54556;BME280;57291;37.520;15.106;2022-10-15T07:38:33;101315.97;;;23.42;55.10
54556;BME280;57291;37.520;15.106;2022-10-15T07:41:01;101322.84;;;23.29;55.03
54556;BME280;57291;37.520;15.106;2022-10-15T07:43:30;101322.53;;;23.11;54.89
54556;BME280;57291;37.520;15.106;2022-10-15T07:45:58;101338.84;;;22.78;56.40
54556;BME280;57291;37.520;15.106;2022-10-15T07:48:25;101336.69;;;22.52;57.33
54556;BME280;57291;37.520;15.106;2022-10-15T07:50:56;101326.66;;;22.28;57.08
54556;BME280;57291;37.520;15.106;2022-10-15T07:53:24;101333.25;;;22.07;60.15
54556;BME280;57291;37.520;15.106;2022-10-15T07:55:58;101329.97;;;22.01;61.43
54556;BME280;57291;37.520;15.106;2022-10-15T07:58:29;101331.50;;;21.83;59.96
54556;BME280;57291;37.520;15.106;2022-10-15T08:01:04;101335.13;;;21.71;59.91
54556;BME280;57291;37.520;15.106;2022-10-15T08:03:33;101335.66;;;21.61;60.41
54556;BME280;57291;37.520;15.106;2022-10-15T08:06:02;101334.34;;;21.71;60.07
54556;BME280;57291;37.520;15.106;2022-10-15T08:08:30;101333.38;;;21.63;59.92
54556;BME280;57291;37.520;15.106;2022-10-15T08:11:04;101323.09;;;21.95;58.69
54556;BME280;57291;37.520;15.106;2022-10-15T08:13:31;101322.28;;;22.11;57.07
54556;BME280;57291;37.520;15.106;2022-10-15T08:15:58;101328.25;;;22.13;57.57
54556;BME280;57291;37.520;15.106;2022-10-15T08:18:26;101333.56;;;22.18;55.38
54556;BME280;57291;37.520;15.106;2022-10-15T08:20:53;101328.19;;;22.09;55.82
54556;BME280;57291;37.520;15.106;2022-10-15T08:23:20;101334.59;;;22.13;56.38
54556;BME280;57291;37.520;15.106;2022-10-15T08:25:47;101325.34;;;22.21;56.34
54556;BME280;57291;37.520;15.106;2022-10-15T08:28:14;101329.75;;;22.42;53.64
54556;BME280;57291;37.520;15.106;2022-10-15T08:30:41;101326.88;;;22.74;54.46
54556;BME280;57291;37.520;15.106;2022-10-15T08:33:11;101336.81;;;22.75;56.82
54556;BME280;57291;37.520;15.106;2022-10-15T08:35:42;101333.72;;;22.60;56.87
54556;BME280;57291;37.520;15.106;2022-10-15T08:38:10;101337.84;;;22.51;55.35
54556;BME280;57291;37.520;15.106;2022-10-15T08:40:51;101335.47;;;22.68;53.43
54556;BME280;57291;37.520;15.106;2022-10-15T08:43:36;101339.50;;;22.90;54.45
54556;BME280;57291;37.520;15.106;2022-10-15T08:46:27;101337.53;;;22.71;54.43
54556;BME280;57291;37.520;15.106;2022-10-15T08:48:58;101339.47;;;22.52;57.28
54556;BME280;57291;37.520;15.106;2022-10-15T08:51:41;101336.72;;;22.36;57.69
54556;BME280;57291;37.520;15.106;2022-10-15T08:54:15;101334.56;;;22.45;57.55
54556;BME280;57291;37.520;15.106;2022-10-15T08:56:45;101331.13;;;22.32;56.43
54556;BME280;57291;37.520;15.106;2022-10-15T08:59:32;101338.63;;;22.32;59.94
54556;BME280;57291;37.520;15.106;2022-10-15T09:04:45;101333.91;;;22.87;56.32
54556;BME280;57291;37.520;15.106;2022-10-15T09:13:02;101340.41;;;23.56;52.85
54556;BME280;57291;37.520;15.106;2022-10-15T09:15:33;101331.59;;;23.51;51.33
54556;BME280;57291;37.520;15.106;2022-10-15T09:18:04;101325.56;;;23.26;50.73
54556;BME280;57291;37.520;15.106;2022-10-15T09:20:34;101330.38;;;23.71;51.68
54556;BME280;57291;37.520;15.106;2022-10-15T09:23:02;101337.78;;;23.86;48.46
54556;BME280;57291;37.520;15.106;2022-10-15T09:25:36;101347.38;;;23.47;48.31
54556;BME280;57291;37.520;15.106;2022-10-15T09:28:13;101335.63;;;23.76;48.96
54556;BME280;57291;37.520;15.106;2022-10-15T09:30:54;101337.63;;;23.56;48.06
54556;BME280;57291;37.520;15.106;2022-10-15T09:33:45;101340.41;;;23.56;49.36
54556;BME280;57291;37.520;15.106;2022-10-15T09:36:30;101341.38;;;23.87;49.35
54556;BME280;57291;37.520;15.106;2022-10-15T09:39:08;101334.50;;;24.30;49.31
54556;BME280;57291;37.520;15.106;2022-10-15T09:44:33;101346.50;;;24.11;51.08
54556;BME280;57291;37.520;15.106;2022-10-15T09:47:13;101331.91;;;23.92;51.27
54556;BME280;57291;37.520;15.106;2022-10-15T09:49:41;101338.25;;;23.92;51.87
54556;BME280;57291;37.520;15.106;2022-10-15T09:57:55;101333.47;;;23.89;50.29
54556;BME280;57291;37.520;15.106;2022-10-15T10:00:24;101331.56;;;24.20;50.68
54556;BME280;57291;37.520;15.106;2022-10-15T10:03:05;101335.69;;;24.56;48.18
54556;BME280;57291;37.520;15.106;2022-10-15T10:05:35;101341.88;;;24.72;47.29
54556;BME280;57291;37.520;15.106;2022-10-15T10:10:41;101338.88;;;25.18;45.49
54556;BME280;57291;37.520;15.106;2022-10-15T10:13:39;101333.88;;;24.71;46.01
54556;BME280;57291;37.520;15.106;2022-10-15T10:16:11;101329.59;;;24.77;48.09
54556;BME280;57291;37.520;15.106;2022-10-15T10:18:39;101329.28;;;24.82;46.18
54556;BME280;57291;37.520;15.106;2022-10-15T10:21:21;101337.28;;;24.87;47.07
54556;BME280;57291;37.520;15.106;2022-10-15T10:23:49;101336.13;;;24.88;45.63
54556;BME280;57291;37.520;15.106;2022-10-15T10:26:16;101331.09;;;24.71;46.57
54556;BME280;57291;37.520;15.106;2022-10-15T10:28:56;101332.16;;;24.32;47.05
54556;BME280;57291;37.520;15.106;2022-10-15T10:31:35;101322.19;;;24.31;46.76
54556;BME280;57291;37.520;15.106;2022-10-15T10:34:26;101325.84;;;24.36;45.98
54556;BME280;57291;37.520;15.106;2022-10-15T10:36:55;101323.25;;;24.46;45.70
54556;BME280;57291;37.520;15.106;2022-10-15T10:39:30;101322.72;;;24.67;47.51
54556;BME280;57291;37.520;15.106;2022-10-15T10:41:59;101328.38;;;24.44;47.95
54556;BME280;57291;37.520;15.106;2022-10-15T10:47:11;101323.34;;;24.27;48.12
54556;BME280;57291;37.520;15.106;2022-10-15T10:52:34;101338.31;;;24.45;46.59
54556;BME280;57291;37.520;15.106;2022-10-15T10:55:19;101337.06;;;24.69;46.43
54556;BME280;57291;37.520;15.106;2022-10-15T10:57:58;101331.03;;;24.64;46.44
54556;BME280;57291;37.520;15.106;2022-10-15T11:03:23;101328.59;;;24.59;47.67
54556;BME280;57291;37.520;15.106;2022-10-15T11:06:23;101326.38;;;24.45;47.32
54556;BME280;57291;37.520;15.106;2022-10-15T11:17:02;101307.81;;;24.49;49.75
54556;BME280;57291;37.520;15.106;2022-10-15T11:19:55;101307.84;;;24.52;49.24
54556;BME280;57291;37.520;15.106;2022-10-15T11:23:00;101307.03;;;24.48;46.44
54556;BME280;57291;37.520;15.106;2022-10-15T11:36:43;101309.88;;;24.55;46.28
54556;BME280;57291;37.520;15.106;2022-10-15T11:39:27;101310.25;;;24.54;47.23
54556;BME280;57291;37.520;15.106;2022-10-15T11:57:58;101289.38;;;24.10;57.30
54556;BME280;57291;37.520;15.106;2022-10-15T12:03:01;101286.28;;;24.16;58.16
54556;BME280;57291;37.520;15.106;2022-10-15T12:05:37;101277.09;;;24.11;58.28
54556;BME280;57291;37.520;15.106;2022-10-15T12:08:06;101277.41;;;24.06;56.19
54556;BME280;57291;37.520;15.106;2022-10-15T12:16:57;101268.28;;;23.56;54.19
54556;BME280;57291;37.520;15.106;2022-10-15T12:19:27;101261.22;;;23.39;53.27
54556;BME280;57291;37.520;15.106;2022-10-15T12:22:06;101260.03;;;23.37;56.13
54556;BME280;57291;37.520;15.106;2022-10-15T12:32:30;101250.00;;;23.78;56.47
54556;BME280;57291;37.520;15.106;2022-10-15T12:35:05;101249.66;;;23.80;57.25
54556;BME280;57291;37.520;15.106;2022-10-15T12:37:33;101253.22;;;23.80;56.53
54556;BME280;57291;37.520;15.106;2022-10-15T12:40:24;101259.22;;;23.59;55.44
54556;BME280;57291;37.520;15.106;2022-10-15T12:42:58;101262.84;;;23.40;57.07
54556;BME280;57291;37.520;15.106;2022-10-15T12:45:35;101262.03;;;23.17;56.89
54556;BME280;57291;37.520;15.106;2022-10-15T12:50:44;101253.41;;;23.45;56.14
54556;BME280;57291;37.520;15.106;2022-10-15T12:53:29;101252.00;;;23.55;54.93
54556;BME280;57291;37.520;15.106;2022-10-15T12:58:43;101254.88;;;23.39;57.46
54556;BME280;57291;37.520;15.106;2022-10-15T13:09:31;101255.56;;;23.55;56.75
54556;BME280;57291;37.520;15.106;2022-10-15T13:11:46;101259.03;;;23.49;56.11
54556;BME280;57291;37.520;15.106;2022-10-15T13:17:01;101252.56;;;23.41;57.53
54556;BME280;57291;37.520;15.106;2022-10-15T13:19:35;101248.59;;;23.42;55.90
54556;BME280;57291;37.520;15.106;2022-10-15T13:22:06;101259.47;;;23.51;55.36
54556;BME280;57291;37.520;15.106;2022-10-15T13:24:45;101262.91;;;23.21;55.03
54556;BME280;57291;37.520;15.106;2022-10-15T13:27:22;101265.19;;;22.96;53.74
54556;BME280;57291;37.520;15.106;2022-10-15T13:30:12;101263.00;;;23.05;55.69
54556;BME280;57291;37.520;15.106;2022-10-15T13:32:51;101264.03;;;23.16;56.12
54556;BME280;57291;37.520;15.106;2022-10-15T13:35:35;101257.72;;;23.20;56.67
54556;BME280;57291;37.520;15.106;2022-10-15T13:38:04;101265.88;;;23.32;55.27
54556;BME280;57291;37.520;15.106;2022-10-15T13:40:31;101266.59;;;23.29;55.97
54556;BME280;57291;37.520;15.106;2022-10-15T13:45:26;101267.25;;;22.99;57.50
54556;BME280;57291;37.520;15.106;2022-10-15T13:47:55;101268.19;;;22.87;57.75
54556;BME280;57291;37.520;15.106;2022-10-15T13:50:31;101272.63;;;22.92;56.84
54556;BME280;57291;37.520;15.106;2022-10-15T13:55:48;101270.59;;;22.69;56.70
54556;BME280;57291;37.520;15.106;2022-10-15T14:03:32;101273.28;;;22.66;57.56
54556;BME280;57291;37.520;15.106;2022-10-15T14:06:15;101272.50;;;22.65;57.84
54556;BME280;57291;37.520;15.106;2022-10-15T14:08:45;101274.59;;;22.53;58.38
54556;BME280;57291;37.520;15.106;2022-10-15T14:11:13;101274.25;;;22.54;58.15
54556;BME280;57291;37.520;15.106;2022-10-15T14:13:44;101269.69;;;22.46;56.98
54556;BME280;57291;37.520;15.106;2022-10-15T14:19:08;101270.94;;;22.48;57.57
54556;BME280;57291;37.520;15.106;2022-10-15T14:21:41;101276.13;;;22.50;57.84
54556;BME280;57291;37.520;15.106;2022-10-15T14:27:19;101265.28;;;22.61;57.83
54556;BME280;57291;37.520;15.106;2022-10-15T14:29:49;101260.53;;;22.61;57.76
54556;BME280;57291;37.520;15.106;2022-10-15T14:34:47;101258.34;;;22.70;58.11
54556;BME280;57291;37.520;15.106;2022-10-15T14:40:18;101261.25;;;22.78;57.95
54556;BME280;57291;37.520;15.106;2022-10-15T14:43:15;101261.63;;;22.76;58.35
54556;BME280;57291;37.520;15.106;2022-10-15T14:48:30;101267.53;;;22.75;58.24
54556;BME280;57291;37.520;15.106;2022-10-15T14:50:58;101276.13;;;22.69;58.19
54556;BME280;57291;37.520;15.106;2022-10-15T14:53:32;101274.88;;;22.67;58.69
54556;BME280;57291;37.520;15.106;2022-10-15T14:56:18;101271.31;;;22.66;58.99
54556;BME280;57291;37.520;15.106;2022-10-15T14:58:53;101275.69;;;22.48;59.44
54556;BME280;57291;37.520;15.106;2022-10-15T15:01:23;101278.22;;;22.37;59.56
54556;BME280;57291;37.520;15.106;2022-10-15T15:03:53;101269.56;;;22.39;60.42
54556;BME280;57291;37.520;15.106;2022-10-15T15:06:21;101283.31;;;22.35;60.24
54556;BME280;57291;37.520;15.106;2022-10-15T15:08:48;101282.06;;;22.33;59.87
54556;BME280;57291;37.520;15.106;2022-10-15T15:11:21;101290.38;;;22.33;60.57
54556;BME280;57291;37.520;15.106;2022-10-15T15:13:49;101288.63;;;22.24;62.14
54556;BME280;57291;37.520;15.106;2022-10-15T15:16:18;101293.44;;;22.12;62.77
54556;BME280;57291;37.520;15.106;2022-10-15T15:18:45;101290.88;;;22.03;65.07
54556;BME280;57291;37.520;15.106;2022-10-15T15:21:19;101294.63;;;21.95;64.33